Time;durP1;ratioP1;P1;durP2;ratioP2;P2;SDS_P1;SDS_P2;PMS_P1;PMS_P2;Temp;Humidity;BMP_temperature;BMP_pressure;BME280_temperature;BME280_humidity;BME280_pressure;Samples;Min_cycle;Max_cycle;Signal;HPM_P1;HPM_P2
2021/11/01 00:02:14;;;;;;;1999.90;999.90;;;17.50;99.90;;;;;;5072714;28;20169;-64
2021/11/01 00:04:44;;;;;;;1999.90;999.90;;;17.50;99.90;;;;;;5072594;28;20169;-65
2021/11/01 00:07:14;;;;;;;1999.90;999.90;;;17.40;99.90;;;;;;5072565;28;20168;-64
2021/11/01 00:09:41;;;;;;;1999.90;999.90;;;17.40;99.90;;;;;;5072545;28;20173;-65
2021/11/01 00:12:08;;;;;;;1999.90;999.90;;;17.40;99.90;;;;;;5072633;28;20256;-65
2021/11/01 00:14:36;;;;;;;1999.90;999.90;;;17.40;99.90;;;;;;5072198;28;20228;-65
2021/11/01 00:17:03;;;;;;;1999.90;999.90;;;17.40;99.90;;;;;;5072327;28;20554;-64
2021/11/01 00:19:30;;;;;;;1999.90;999.90;;;17.40;99.90;;;;;;5072761;28;20546;-65
2021/11/01 00:21:57;;;;;;;1999.90;999.90;;;17.30;99.90;;;;;;5072350;28;20382;-65
2021/11/01 00:24:24;;;;;;;1999.90;999.90;;;17.30;99.90;;;;;;5072524;28;20171;-64
2021/11/01 00:26:51;;;;;;;1999.90;999.90;;;17.30;99.90;;;;;;5072432;28;20169;-65
2021/11/01 00:29:18;;;;;;;1999.90;999.90;;;17.30;99.90;;;;;;5072526;28;20169;-65
2021/11/01 00:31:45;;;;;;;1999.90;999.90;;;17.30;99.90;;;;;;5072344;28;20642;-65
2021/11/01 00:34:12;;;;;;;1999.90;999.90;;;17.40;99.90;;;;;;5071119;28;20631;-66
2021/11/01 00:36:39;;;;;;;1999.90;999.90;;;17.30;99.90;;;;;;5072414;28;20208;-66
2021/11/01 00:39:06;;;;;;;1999.90;999.90;;;17.30;99.90;;;;;;5072277;28;20172;-65
2021/11/01 00:41:33;;;;;;;1999.90;999.90;;;17.30;99.90;;;;;;5072238;28;20175;-65
2021/11/01 00:44:00;;;;;;;1999.90;999.90;;;17.30;99.90;;;;;;5072236;28;20172;-66
2021/11/01 00:46:27;;;;;;;1999.90;999.90;;;17.30;99.90;;;;;;5072150;28;20184;-65
2021/11/01 00:48:54;;;;;;;1999.90;999.90;;;17.20;99.90;;;;;;5072115;28;20592;-65
2021/11/01 00:51:21;;;;;;;1999.90;999.90;;;17.30;99.90;;;;;;5071338;28;20176;-66
2021/11/01 00:53:48;;;;;;;1999.90;999.90;;;17.30;99.90;;;;;;5075789;28;20169;-65
2021/11/01 00:56:17;;;;;;;1999.90;999.90;;;17.30;99.90;;;;;;5075645;28;20235;-65
2021/11/01 00:58:44;;;;;;;1999.90;999.90;;;17.30;99.90;;;;;;5075648;28;20172;-65
2021/11/01 01:01:15;;;;;;;1999.90;999.90;;;17.30;99.90;;;;;;5075545;28;20164;-65
2021/11/01 01:03:43;;;;;;;1999.90;999.90;;;17.30;99.90;;;;;;5075578;28;20157;-65
2021/11/01 01:06:10;;;;;;;1999.90;999.90;;;17.20;99.90;;;;;;5075519;28;20602;-65
2021/11/01 01:08:38;;;;;;;1999.90;999.90;;;17.10;99.90;;;;;;5075477;28;20176;-65
2021/11/01 01:11:05;;;;;;;1999.90;999.90;;;17.00;99.90;;;;;;5075405;28;20172;-65
2021/11/01 01:13:38;;;;;;;1999.90;999.90;;;17.00;99.90;;;;;;5075396;28;20650;-63
2021/11/01 01:18:39;;;;;;;1999.90;999.90;;;17.00;99.90;;;;;;5075325;28;20161;-65
2021/11/01 01:23:51;;;;;;;1999.90;999.90;;;16.90;99.90;;;;;;5075698;28;20641;-64
2021/11/01 01:26:19;;;;;;;1999.90;999.90;;;16.90;99.90;;;;;;5075227;28;20679;-65
2021/11/01 01:28:46;;;;;;;1999.90;999.90;;;16.90;99.90;;;;;;5075060;28;20215;-65
2021/11/01 01:31:13;;;;;;;1999.90;999.90;;;16.90;99.90;;;;;;5075021;28;20181;-65
2021/11/01 01:33:40;;;;;;;1999.90;999.90;;;16.90;99.90;;;;;;5074959;28;20263;-65
2021/11/01 01:36:07;;;;;;;1999.90;999.90;;;17.00;99.90;;;;;;5074798;28;20197;-65
2021/11/01 01:38:35;;;;;;;1999.90;999.90;;;17.00;99.90;;;;;;5074880;28;20199;-65
2021/11/01 01:41:15;;;;;;;1999.90;999.90;;;17.00;99.90;;;;;;5074778;28;20172;-65
2021/11/01 01:43:53;;;;;;;1999.90;999.90;;;17.00;99.90;;;;;;5074858;28;20164;-65
2021/11/01 01:46:21;;;;;;;1999.90;999.90;;;17.10;99.90;;;;;;5074813;28;20213;-65
2021/11/01 01:48:49;;;;;;;1999.90;999.90;;;17.10;99.90;;;;;;5074681;28;20169;-65
2021/11/01 01:51:17;;;;;;;1999.90;999.90;;;17.10;99.90;;;;;;5074608;28;20718;-65
2021/11/01 01:53:44;;;;;;;1999.90;999.90;;;17.10;99.90;;;;;;5074600;28;20165;-64
2021/11/01 01:56:11;;;;;;;1999.90;999.90;;;17.10;99.90;;;;;;5074766;28;20208;-64
2021/11/01 01:58:44;;;;;;;1999.90;999.90;;;17.00;99.90;;;;;;5074507;28;20164;-65
2021/11/01 02:01:22;;;;;;;1999.90;999.90;;;17.00;99.90;;;;;;5074441;28;20262;-64
2021/11/01 02:03:51;;;;;;;1999.90;999.90;;;16.90;99.90;;;;;;5073942;28;20172;-65
2021/11/01 02:06:18;;;;;;;1999.90;999.90;;;16.80;99.90;;;;;;5074231;28;20218;-64
2021/11/01 02:09:14;;;;;;;1999.90;999.90;;;16.80;99.90;;;;;;5074311;28;20172;-64
2021/11/01 02:12:03;;;;;;;1999.90;999.90;;;16.80;99.90;;;;;;5074264;28;20157;-64
2021/11/01 02:14:46;;;;;;;1999.90;999.90;;;16.80;99.90;;;;;;5074103;28;20219;-64
2021/11/01 02:17:17;;;;;;;1999.90;999.90;;;16.80;99.90;;;;;;5074325;28;20232;-64
2021/11/01 02:19:48;;;;;;;1999.90;999.90;;;16.70;99.90;;;;;;5074125;28;20240;-65
2021/11/01 02:22:31;;;;;;;1999.90;999.90;;;16.70;99.90;;;;;;5074142;28;20180;-66
2021/11/01 02:25:11;;;;;;;1999.90;999.90;;;16.70;99.90;;;;;;5074067;28;20199;-65
2021/11/01 02:27:40;;;;;;;1999.90;999.90;;;16.70;99.90;;;;;;5073974;28;20179;-65
2021/11/01 02:30:10;;;;;;;1999.90;999.90;;;16.80;99.90;;;;;;5073775;28;20165;-66
2021/11/01 02:32:42;;;;;;;1999.90;999.90;;;16.80;99.90;;;;;;5073787;28;20168;-64
2021/11/01 02:35:10;;;;;;;1999.90;999.90;;;16.80;99.90;;;;;;5074074;28;20202;-65
2021/11/01 02:37:40;;;;;;;1999.90;999.90;;;16.70;99.90;;;;;;5073668;28;20283;-64
2021/11/01 02:40:09;;;;;;;1999.90;999.90;;;16.70;99.90;;;;;;5073652;28;20176;-64
2021/11/01 02:42:37;;;;;;;1999.90;999.90;;;16.80;99.90;;;;;;5073593;28;20532;-65
2021/11/01 02:45:09;;;;;;;1999.90;999.90;;;16.70;99.90;;;;;;5073577;28;20157;-64
2021/11/01 02:47:37;;;;;;;1999.90;999.90;;;16.60;99.90;;;;;;5073633;28;20261;-65
2021/11/01 02:50:10;;;;;;;1999.90;999.90;;;16.50;99.90;;;;;;5073450;28;20169;-65
2021/11/01 02:52:37;;;;;;;1999.90;999.90;;;16.40;99.90;;;;;;5073473;28;20153;-66
2021/11/01 02:55:06;;;;;;;1999.90;999.90;;;16.30;99.90;;;;;;5073385;28;20183;-67
2021/11/01 02:57:33;;;;;;;1999.90;999.90;;;16.10;99.90;;;;;;5073398;28;20199;-64
2021/11/01 03:00:02;;;;;;;1999.90;999.90;;;15.90;99.90;;;;;;5073453;28;20772;-66
2021/11/01 03:02:29;;;;;;;1999.90;999.90;;;15.80;99.90;;;;;;5073443;28;20168;-67
2021/11/01 03:04:56;;;;;;;1999.90;999.90;;;15.70;99.90;;;;;;5073222;28;20172;-65
2021/11/01 03:07:24;;;;;;;1999.90;999.90;;;15.60;99.90;;;;;;5073257;28;20649;-66
2021/11/01 03:09:52;;;;;;;1999.90;999.90;;;15.50;99.90;;;;;;5073211;28;20251;-65
2021/11/01 03:12:24;;;;;;;1999.90;999.90;;;15.30;99.90;;;;;;5073171;28;20192;-67
2021/11/01 03:14:56;;;;;;;1999.90;999.90;;;15.10;99.90;;;;;;5072442;28;20308;-68
2021/11/01 03:17:24;;;;;;;1999.90;999.90;;;15.10;99.90;;;;;;5073051;28;20234;-68
2021/11/01 03:20:02;;;;;;;1999.90;999.90;;;15.00;99.90;;;;;;5072999;28;20176;-68
2021/11/01 03:22:37;;;;;;;1999.90;999.90;;;15.00;99.90;;;;;;5073273;28;20671;-68
2021/11/01 03:25:18;;;;;;;1999.90;999.90;;;15.00;99.90;;;;;;5073144;28;20184;-68
2021/11/01 03:27:47;;;;;;;1999.90;999.90;;;15.10;99.90;;;;;;5071749;28;20168;-68
2021/11/01 03:30:16;;;;;;;1999.90;999.90;;;15.10;99.90;;;;;;5072956;28;20218;-68
2021/11/01 03:32:45;;;;;;;1999.90;999.90;;;15.20;99.90;;;;;;5072897;28;20168;-68
2021/11/01 03:35:13;;;;;;;1999.90;999.90;;;15.20;99.90;;;;;;5073216;28;20172;-67
2021/11/01 03:37:44;;;;;;;1999.90;999.90;;;15.30;99.90;;;;;;5072703;28;20204;-68
2021/11/01 03:40:16;;;;;;;1999.90;999.90;;;15.30;99.90;;;;;;5072792;28;20161;-68
2021/11/01 03:42:43;;;;;;;1999.90;999.90;;;15.40;99.90;;;;;;5072802;28;20176;-68
2021/11/01 03:45:11;;;;;;;1999.90;999.90;;;15.40;99.90;;;;;;5071638;28;20160;-68
2021/11/01 03:47:49;;;;;;;1999.90;999.90;;;15.50;99.90;;;;;;5072831;28;20252;-67
2021/11/01 03:52:49;;;;;;;1999.90;999.90;;;15.60;99.90;;;;;;5072693;28;20168;-66
2021/11/01 03:55:18;;;;;;;1999.90;999.90;;;15.60;99.90;;;;;;5072688;28;20161;-67
2021/11/01 03:57:46;;;;;;;1999.90;999.90;;;15.60;99.90;;;;;;5072586;28;20228;-66
2021/11/01 04:00:13;;;;;;;1999.90;999.90;;;15.60;99.90;;;;;;5072578;28;20169;-68
2021/11/01 04:02:44;;;;;;;1999.90;999.90;;;15.60;99.90;;;;;;5072628;28;20178;-68
2021/11/01 04:05:11;;;;;;;1999.90;999.90;;;15.50;99.90;;;;;;5072793;28;20561;-67
2021/11/01 04:07:38;;;;;;;1999.90;999.90;;;15.40;99.90;;;;;;5072690;28;20157;-70
2021/11/01 04:10:07;;;;;;;1999.90;999.90;;;15.20;99.90;;;;;;5072662;28;20173;-73
2021/11/01 04:12:35;;;;;;;1999.90;999.90;;;15.00;99.90;;;;;;5072814;28;20157;-68
2021/11/01 04:15:09;;;;;;;1999.90;999.90;;;14.80;99.90;;;;;;5072377;28;20291;-66
2021/11/01 04:17:45;;;;;;;1999.90;999.90;;;14.60;99.90;;;;;;5072587;28;20566;-69
2021/11/01 04:22:50;;;;;;;1999.90;999.90;;;14.60;99.90;;;;;;5072489;28;20157;-68
2021/11/01 04:25:19;;;;;;;1999.90;999.90;;;14.60;99.90;;;;;;5072734;28;20506;-69
2021/11/01 04:27:47;;;;;;;1999.90;999.90;;;14.60;99.90;;;;;;5076218;28;20549;-69
2021/11/01 04:30:14;;;;;;;1999.90;999.90;;;14.50;99.90;;;;;;5076169;28;20165;-70
2021/11/01 04:32:43;;;;;;;1999.90;999.90;;;14.50;99.90;;;;;;5076153;28;20630;-69
2021/11/01 04:37:49;;;;;;;1999.90;999.90;;;14.40;99.90;;;;;;5076018;28;20200;-70
2021/11/01 04:53:51;;;;;;;1999.90;999.90;;;14.30;99.90;;;;;;5075695;28;20163;-75
2021/11/01 04:56:22;;;;;;;1999.90;999.90;;;14.30;99.90;;;;;;5075798;28;20204;-76
2021/11/01 04:58:50;;;;;;;1999.90;999.90;;;14.30;99.90;;;;;;5075671;28;20187;-75
2021/11/01 05:01:22;;;;;;;1999.90;999.90;;;14.20;99.90;;;;;;5075747;28;20204;-80
2021/11/01 05:03:52;;;;;;;1999.90;999.90;;;14.10;99.90;;;;;;5075843;28;20161;-76
2021/11/01 05:06:22;;;;;;;1999.90;999.90;;;14.10;99.90;;;;;;5075472;28;20164;-77
2021/11/01 05:09:00;;;;;;;1999.90;999.90;;;14.10;99.90;;;;;;5075475;28;20184;-73
2021/11/01 05:12:09;;;;;;;1999.90;999.90;;;14.10;99.90;;;;;;5075521;28;20153;-76
2021/11/01 05:15:07;;;;;;;1999.90;999.90;;;14.10;99.90;;;;;;5073010;28;20212;-73
2021/11/01 05:19:52;;;;;;;1999.90;999.90;;;14.20;99.90;;;;;;5075450;28;20157;-72
2021/11/01 05:22:32;;;;;;;1999.90;999.90;;;14.20;99.90;;;;;;5075320;28;20239;-70
2021/11/01 05:25:44;;;;;;;1999.90;999.90;;;14.30;99.90;;;;;;5075202;28;20172;-73
2021/11/01 05:30:26;;;;;;;1999.90;999.90;;;14.50;99.90;;;;;;5075061;28;20539;-68
2021/11/01 05:35:48;;;;;;;1999.90;999.90;;;14.60;99.90;;;;;;5059164;28;20250;-70
2021/11/01 05:38:15;;;;;;;1999.90;999.90;;;14.70;99.90;;;;;;5074426;28;20216;-75
2021/11/01 05:40:42;;;;;;;1999.90;999.90;;;14.70;99.90;;;;;;5075026;28;20222;-71
2021/11/01 05:43:09;;;;;;;1999.90;999.90;;;14.80;99.90;;;;;;5074838;28;20544;-72
2021/11/01 05:45:36;;;;;;;1999.90;999.90;;;14.80;99.90;;;;;;5074698;28;20172;-73
2021/11/01 05:48:03;;;;;;;1999.90;999.90;;;14.80;99.90;;;;;;5074773;28;20183;-66
2021/11/01 05:50:33;;;;;;;1999.90;999.90;;;14.80;99.90;;;;;;5074688;28;20172;-71
2021/11/01 05:53:02;;;;;;;1999.90;999.90;;;14.80;99.90;;;;;;5073124;28;20180;-75
2021/11/01 05:55:38;;;;;;;1999.90;999.90;;;14.90;99.90;;;;;;5074489;28;20175;-71
2021/11/01 05:58:17;;;;;;;1999.90;999.90;;;15.00;99.90;;;;;;5074307;28;20291;-72
2021/11/01 06:01:15;;;;;;;1999.90;999.90;;;15.10;99.90;;;;;;5074374;28;20167;-75
2021/11/01 06:08:44;;;;;;;1999.90;999.90;;;15.50;99.90;;;;;;5074358;28;20176;-68
2021/11/01 06:13:58;;;;;;;1999.90;999.90;;;15.60;99.90;;;;;;5074020;28;20511;-70
2021/11/01 06:16:25;;;;;;;1999.90;999.90;;;15.60;99.90;;;;;;5074116;28;20196;-67
2021/11/01 06:18:53;;;;;;;1999.90;999.90;;;15.60;99.90;;;;;;5074240;28;20252;-72
2021/11/01 06:21:20;;;;;;;1999.90;999.90;;;15.60;99.90;;;;;;5074107;28;20647;-67
2021/11/01 06:23:55;;;;;;;1999.90;999.90;;;15.70;99.90;;;;;;5074118;28;20592;-70
2021/11/01 06:26:23;;;;;;;1999.90;999.90;;;15.60;99.90;;;;;;5074109;28;20148;-68
2021/11/01 06:28:56;;;;;;;1999.90;999.90;;;15.70;99.90;;;;;;5072603;28;20188;-73
2021/11/01 06:31:28;;;;;;;1999.90;999.90;;;15.70;99.90;;;;;;5073981;28;20506;-71
2021/11/01 06:34:05;;;;;;;1999.90;999.90;;;15.60;99.90;;;;;;5073884;28;20164;-70
2021/11/01 06:40:17;;;;;;;1999.90;999.90;;;15.20;99.90;;;;;;5052612;28;20638;-68
2021/11/01 06:42:52;;;;;;;1999.90;999.90;;;14.90;99.90;;;;;;5067939;28;20631;-71
2021/11/01 07:14:04;;;;;;;1999.90;999.90;;;15.30;99.90;;;;;;5073212;28;20238;-74
2021/11/01 07:15:17;;;;;;;1999.90;999.90;;;17.10;99.90;;;;;;5072795;28;20219;-77
2021/11/01 07:18:01;;;;;;;1999.90;999.90;;;17.30;99.90;;;;;;5071458;28;20216;-72
2021/11/01 07:20:36;;;;;;;1999.90;999.90;;;17.40;99.90;;;;;;5072786;28;20256;-73
2021/11/01 08:23:33;;;;;;;1999.90;999.90;;;14.80;99.90;;;;;;5075936;28;20183;-77
2021/11/01 09:18:45;;;;;;;1999.90;999.90;;;15.40;99.90;;;;;;5074700;28;20275;-70
2021/11/01 09:19:55;;;;;;;1999.90;999.90;;;15.40;99.90;;;;;;5065376;28;20192;-75
2021/11/01 09:27:40;;;;;;;1999.90;999.90;;;15.50;99.90;;;;;;5074698;28;20171;-74
2021/11/01 09:41:00;;;;;;;1999.90;999.90;;;15.30;99.90;;;;;;5074388;28;20176;-67
2021/11/01 09:43:29;;;;;;;1999.90;999.90;;;15.30;99.90;;;;;;5074574;28;20157;-67
2021/11/01 09:45:58;;;;;;;1999.90;999.90;;;15.30;99.90;;;;;;5074589;28;20266;-67
2021/11/01 09:48:26;;;;;;;1999.90;999.90;;;15.40;99.90;;;;;;5074470;28;20177;-69
2021/11/01 09:50:54;;;;;;;1999.90;999.90;;;15.30;99.90;;;;;;5074266;28;20176;-71
2021/11/01 09:53:26;;;;;;;1999.90;999.90;;;15.10;99.90;;;;;;5074250;28;20278;-73
2021/11/01 10:01:35;;;;;;;1999.90;999.90;;;15.30;99.90;;;;;;5074567;28;20168;-75
2021/11/01 10:04:02;;;;;;;1999.90;999.90;;;15.30;99.90;;;;;;5074005;28;20165;-71
2021/11/01 10:06:31;;;;;;;1999.90;999.90;;;15.20;99.90;;;;;;5073946;28;20164;-70
2021/11/01 10:09:02;;;;;;;1999.90;999.90;;;15.10;99.90;;;;;;5073802;28;20176;-72
2021/11/01 10:11:39;;;;;;;1999.90;999.90;;;15.00;99.90;;;;;;5073818;28;20149;-74
2021/11/01 10:14:10;;;;;;;1999.90;999.90;;;15.00;99.90;;;;;;5073453;28;20223;-74
2021/11/01 10:19:43;;;;;;;1999.90;999.90;;;14.70;99.90;;;;;;5073811;28;20257;-70
2021/11/01 10:22:24;;;;;;;1999.90;999.90;;;14.60;99.90;;;;;;5073323;28;20594;-68
2021/11/01 10:24:56;;;;;;;1999.90;999.90;;;14.60;99.90;;;;;;5073049;28;20165;-71
2021/11/01 10:27:40;;;;;;;1999.90;999.90;;;14.60;99.90;;;;;;5073471;28;20627;-70
2021/11/01 10:30:11;;;;;;;1999.90;999.90;;;14.60;99.90;;;;;;5073690;28;20160;-74
2021/11/01 10:32:45;;;;;;;1999.90;999.90;;;14.70;99.90;;;;;;5073566;28;20153;-72
2021/11/01 10:35:24;;;;;;;1999.90;999.90;;;14.70;99.90;;;;;;5073478;28;20330;-70
2021/11/01 10:38:36;;;;;;;1999.90;999.90;;;14.80;99.90;;;;;;5073176;28;20210;-72
2021/11/01 10:41:15;;;;;;;1999.90;999.90;;;14.80;99.90;;;;;;5072939;28;20498;-76
2021/11/01 11:11:32;;;;;;;1999.90;999.90;;;15.50;99.90;;;;;;5072342;28;20560;-71
2021/11/01 11:14:07;;;;;;;1999.90;999.90;;;15.60;99.90;;;;;;5072096;28;20148;-73
2021/11/01 11:24:40;;;;;;;1999.90;999.90;;;16.10;99.90;;;;;;5072243;28;20152;-71
2021/11/01 11:42:31;;;;;;;1999.90;999.90;;;18.00;99.90;;;;;;5072388;28;20206;-67
2021/11/01 11:48:32;;;;;;;1999.90;999.90;;;18.30;99.90;;;;;;5072571;28;20192;-67
2021/11/01 11:50:50;;;;;;;1999.90;999.90;;;18.40;99.90;;;;;;5069722;28;20229;-68
2021/11/01 11:53:19;;;;;;;1999.90;999.90;;;18.40;99.90;;;;;;5072137;28;20165;-66
2021/11/01 11:56:06;;;;;;;1999.90;999.90;;;18.70;99.90;;;;;;5072002;28;20199;-67
2021/11/01 11:58:36;;;;;;;1999.90;999.90;;;19.30;99.90;;;;;;5071774;28;20561;-66
2021/11/01 12:01:23;;;;;;;1999.90;999.90;;;19.50;99.90;;;;;;5071996;28;20574;-66
2021/11/01 12:03:49;;;;;;;1999.90;999.90;;;19.40;99.90;;;;;;5071951;28;20335;-65
2021/11/01 12:06:21;;;;;;;1999.90;999.90;;;19.50;99.90;;;;;;5071984;28;20168;-68
2021/11/01 12:09:04;;;;;;;1999.90;999.90;;;19.70;99.90;;;;;;5072043;28;20248;-66
2021/11/01 12:11:36;;;;;;;1999.90;999.90;;;19.80;99.90;;;;;;5072097;28;20243;-68
2021/11/01 12:17:13;;;;;;;1999.90;999.90;;;20.00;99.90;;;;;;5048498;28;20618;-68
2021/11/01 12:19:40;;;;;;;1999.90;999.90;;;20.40;99.90;;;;;;5070501;28;20164;-69
2021/11/01 12:22:11;;;;;;;1999.90;999.90;;;20.60;99.90;;;;;;5071706;28;20171;-66
2021/11/01 12:24:46;;;;;;;1999.90;999.90;;;20.50;99.90;;;;;;5071733;28;20161;-66
2021/11/01 12:27:13;;;;;;;1999.90;999.90;;;20.00;99.90;;;;;;5071629;28;20204;-68
2021/11/01 12:29:40;;;;;;;1999.90;999.90;;;19.80;99.90;;;;;;5071550;28;20226;-67
2021/11/01 12:32:12;;;;;;;1999.90;999.90;;;19.20;99.90;;;;;;5071373;28;20169;-67
2021/11/01 12:35:36;;;;;;;1999.90;999.90;;;18.80;99.90;;;;;;5071823;28;20239;-66
2021/11/01 12:37:51;;;;;;;1999.90;999.90;;;18.20;99.90;;;;;;5065774;28;20583;-80
2021/11/01 12:43:18;;;;;;;1999.90;999.90;;;17.00;99.90;;;;;;5071505;28;20160;-72
2021/11/01 12:57:01;;;;;;;1999.90;999.90;;;15.90;99.90;;;;;;5074999;28;20219;-70
2021/11/01 12:59:43;;;;;;;1999.90;999.90;;;15.70;99.90;;;;;;5075244;28;20579;-70
2021/11/01 13:02:18;;;;;;;1999.90;999.90;;;15.60;99.90;;;;;;5075218;28;20175;-71
2021/11/01 13:04:48;;;;;;;1999.90;999.90;;;15.60;99.90;;;;;;5075104;28;20518;-71
2021/11/01 13:10:20;;;;;;;1999.90;999.90;;;15.50;99.90;;;;;;5074795;28;20152;-72
2021/11/01 13:13:08;;;;;;;1999.90;999.90;;;15.50;99.90;;;;;;5074968;28;20157;-72
2021/11/01 13:18:21;;;;;;;1999.90;999.90;;;15.50;99.90;;;;;;5074886;28;20603;-71
2021/11/01 13:20:58;;;;;;;1999.90;999.90;;;15.50;99.90;;;;;;5073481;28;20180;-71
2021/11/01 13:23:30;;;;;;;1999.90;999.90;;;15.60;99.90;;;;;;5074651;28;20619;-70
2021/11/01 13:27:03;;;;;;;1999.90;999.90;;;15.50;99.90;;;;;;5074738;28;20155;-72
2021/11/01 13:37:22;;;;;;;1999.90;999.90;;;15.40;99.90;;;;;;5074692;28;20200;-71
2021/11/01 13:40:03;;;;;;;1999.90;999.90;;;15.40;99.90;;;;;;5074580;28;20230;-70
2021/11/01 13:42:30;;;;;;;1999.90;999.90;;;15.50;99.90;;;;;;5074459;28;20160;-72
2021/11/01 13:45:07;;;;;;;1999.90;999.90;;;15.50;99.90;;;;;;5074337;28;20160;-73
2021/11/01 13:47:50;;;;;;;1999.90;999.90;;;15.50;99.90;;;;;;5072976;28;20314;-72
2021/11/01 13:50:21;;;;;;;1999.90;999.90;;;15.70;99.90;;;;;;5074319;28;20233;-71
2021/11/01 13:53:13;;;;;;;1999.90;999.90;;;16.00;99.90;;;;;;5074206;28;20161;-72
2021/11/01 13:56:01;;;;;;;1999.90;999.90;;;16.60;99.90;;;;;;5074246;28;20160;-72
2021/11/01 14:17:16;;;;;;;1999.90;999.90;;;17.00;99.90;;;;;;5073627;28;20184;-76
2021/11/01 14:20:08;;;;;;;1999.90;999.90;;;16.80;99.90;;;;;;5073790;28;20167;-72
2021/11/01 14:30:56;;;;;;;1999.90;999.90;;;15.00;99.90;;;;;;5073247;28;20631;-67
2021/11/01 15:06:38;;;;;;;1999.90;999.90;;;15.30;99.90;;;;;;5072812;28;20202;-74
2021/11/01 16:19:27;;;;;;;1999.90;999.90;;;13.30;99.90;;;;;;5071985;28;20566;-70
2021/11/01 16:21:54;;;;;;;1999.90;999.90;;;13.30;99.90;;;;;;5073136;28;20195;-70
2021/11/01 16:24:21;;;;;;;1999.90;999.90;;;13.40;99.90;;;;;;5075727;28;20623;-70
2021/11/01 16:26:49;;;;;;;1999.90;999.90;;;13.40;99.90;;;;;;5075698;28;20196;-70
2021/11/01 16:29:19;;;;;;;1999.90;999.90;;;13.40;99.90;;;;;;5075560;28;20673;-70
2021/11/01 16:31:52;;;;;;;1999.90;999.90;;;13.40;99.90;;;;;;5075264;28;20230;-69
2021/11/01 16:34:28;;;;;;;1999.90;999.90;;;13.40;99.90;;;;;;5075316;28;20164;-72
2021/11/01 16:39:47;;;;;;;1999.90;999.90;;;13.40;99.90;;;;;;5075298;28;20168;-71
2021/11/01 16:42:21;;;;;;;1999.90;999.90;;;13.40;99.90;;;;;;5075204;28;20157;-72
2021/11/01 16:44:49;;;;;;;1999.90;999.90;;;13.40;99.90;;;;;;5073963;28;20209;-72
2021/11/01 16:47:17;;;;;;;1999.90;999.90;;;13.40;99.90;;;;;;5074903;28;20216;-72
2021/11/01 16:49:48;;;;;;;1999.90;999.90;;;13.40;99.90;;;;;;5074957;28;20169;-71
2021/11/01 16:52:17;;;;;;;1999.90;999.90;;;13.40;99.90;;;;;;5074908;28;20566;-74
2021/11/01 16:54:50;;;;;;;1999.90;999.90;;;13.40;99.90;;;;;;5074695;28;20164;-71
2021/11/01 16:57:24;;;;;;;1999.90;999.90;;;13.40;99.90;;;;;;5074774;28;20200;-72
2021/11/01 16:59:56;;;;;;;1999.90;999.90;;;13.40;99.90;;;;;;5074905;28;20156;-71
2021/11/01 17:21:39;;;;;;;1999.90;999.90;;;13.50;99.90;;;;;;5074434;28;20202;-72
2021/11/01 17:26:53;;;;;;;1999.90;999.90;;;13.40;99.90;;;;;;5074200;28;20623;-73
2021/11/01 18:40:35;;;;;;;1999.90;999.90;;;12.80;99.90;;;;;;5019563;28;20655;-72
2021/11/01 18:43:11;;;;;;;1999.90;999.90;;;12.80;99.90;;;;;;5072008;28;20189;-73
2021/11/01 18:51:33;;;;;;;1999.90;999.90;;;12.60;99.90;;;;;;5073149;28;20167;-73
2021/11/01 18:54:03;;;;;;;1999.90;999.90;;;12.60;99.90;;;;;;5072686;28;20179;-71
2021/11/01 18:56:37;;;;;;;1999.90;999.90;;;12.60;99.90;;;;;;5072912;28;20164;-75
2021/11/01 18:59:06;;;;;;;1999.90;999.90;;;12.50;99.90;;;;;;5072565;28;20153;-74
2021/11/01 19:01:36;;;;;;;1999.90;999.90;;;12.50;99.90;;;;;;5072582;28;20172;-75
2021/11/01 19:04:09;;;;;;;1999.90;999.90;;;12.50;99.90;;;;;;5072642;28;20193;-75
2021/11/01 19:06:52;;;;;;;1999.90;999.90;;;12.50;99.90;;;;;;5072611;28;20171;-73
2021/11/01 19:09:28;;;;;;;1999.90;999.90;;;12.50;99.90;;;;;;5072825;28;20210;-74
2021/11/01 20:05:43;;;;;;;1999.90;999.90;;;12.70;99.90;;;;;;5076947;28;20233;-73
2021/11/01 21:25:54;;;;;;;1999.90;999.90;;;12.40;99.90;;;;;;5075364;28;20627;-72
2021/11/01 21:28:21;;;;;;;1999.90;999.90;;;12.30;99.90;;;;;;5075162;28;20545;-71
2021/11/01 21:30:49;;;;;;;1999.90;999.90;;;12.20;99.90;;;;;;5075147;28;20169;-73
2021/11/01 21:33:19;;;;;;;1999.90;999.90;;;12.20;99.90;;;;;;5075043;28;20234;-72
2021/11/01 21:35:51;;;;;;;1999.90;999.90;;;12.30;99.90;;;;;;5075036;28;20199;-73
2021/11/01 21:38:18;;;;;;;1999.90;999.90;;;12.20;99.90;;;;;;5074913;28;20196;-71
2021/11/01 21:40:51;;;;;;;1999.90;999.90;;;12.20;99.90;;;;;;5074952;28;20670;-73
2021/11/01 21:43:18;;;;;;;1999.90;999.90;;;12.10;99.90;;;;;;5074786;28;20180;-73
2021/11/01 21:45:45;;;;;;;1999.90;999.90;;;12.20;99.90;;;;;;5074880;28;20169;-72
2021/11/01 21:48:12;;;;;;;1999.90;999.90;;;12.20;99.90;;;;;;5074986;28;20271;-73
2021/11/01 21:50:42;;;;;;;1999.90;999.90;;;12.30;99.90;;;;;;5074817;28;20662;-72
2021/11/01 21:53:09;;;;;;;1999.90;999.90;;;12.30;99.90;;;;;;5074690;28;20156;-72
2021/11/01 21:55:37;;;;;;;1999.90;999.90;;;12.20;99.90;;;;;;5074617;28;20169;-72
2021/11/01 21:58:11;;;;;;;1999.90;999.90;;;12.20;99.90;;;;;;5074716;28;20204;-72
2021/11/01 22:17:11;;;;;;;1999.90;999.90;;;12.10;99.90;;;;;;5074225;28;20638;-72
2021/11/01 22:22:26;;;;;;;1999.90;999.90;;;11.90;99.90;;;;;;5074052;28;20196;-71
2021/11/01 22:38:51;;;;;;;1999.90;999.90;;;11.80;99.90;;;;;;5073752;28;20207;-72
2021/11/01 22:57:22;;;;;;;1999.90;999.90;;;11.80;99.90;;;;;;5073536;28;20242;-74
2021/11/01 22:59:49;;;;;;;1999.90;999.90;;;11.80;99.90;;;;;;5073459;28;20164;-73
2021/11/01 23:02:15;;;;;;;1999.90;999.90;;;11.90;99.90;;;;;;5073454;28;20622;-73
2021/11/01 23:32:29;;;;;;;1999.90;999.90;;;12.30;99.90;;;;;;5072257;28;20167;-72
2021/11/01 23:34:56;;;;;;;1999.90;999.90;;;12.40;99.90;;;;;;5073023;28;20168;-73
2021/11/01 23:37:23;;;;;;;1999.90;999.90;;;12.40;99.90;;;;;;5072896;28;20227;-73
2021/11/01 23:39:50;;;;;;;1999.90;999.90;;;12.40;99.90;;;;;;5073001;28;20199;-73
2021/11/01 23:42:17;;;;;;;1999.90;999.90;;;12.40;99.90;;;;;;5072833;28;20179;-72
2021/11/01 23:44:44;;;;;;;1999.90;999.90;;;12.40;99.90;;;;;;5072970;28;20179;-71
2021/11/01 23:47:11;;;;;;;1999.90;999.90;;;12.40;99.90;;;;;;5073068;28;20211;-72
2021/11/01 23:49:37;;;;;;;1999.90;999.90;;;12.40;99.90;;;;;;5072761;28;20175;-73
2021/11/01 23:52:11;;;;;;;1999.90;999.90;;;12.40;99.90;;;;;;5072855;28;20179;-73
2021/11/01 23:54:44;;;;;;;1999.90;999.90;;;12.40;99.90;;;;;;5072773;28;20175;-73
2021/11/01 23:57:14;;;;;;;1999.90;999.90;;;12.40;99.90;;;;;;5072869;28;20642;-72
2021/11/01 23:59:43;;;;;;;1999.90;999.90;;;12.40;99.90;;;;;;5072913;28;20172;-72
